Celebrity Summit — 9HJC9 — position and weather

sailwx.info

Track history (hours):
 
Tides and Currents Weather Stations Pressure Air Temp Water Temp Dewpoint Dewpoint Depression Visibility Wind Speed Wind Dir Waves Ship Positions

Celebrity Summit

Last reported at 2017-Jan-20 05:00 UTC. Time now 2017-Jan-21 04:26 UTC.
Position N 25°36' W 077°18'.

Length 294 m; draft 8.3 m.

Type: Passenger vessel. MMSI: 249047000.

Wind from 170 at 8 knots

Barometer 1018.0 mb
Air temperature 23.0 ° C
Visibility: greater than 5.4 NM
Dewpoint 20.0 ° C
Water temperature 23.0 ° C

Date/timePositionNaut miles runAvg speedWind from/ knotsBaromVisibWave heightAir tempDewpointWater temp
2017-Jan-20 05:00N 25°36' W 077°18'113 4.1 170 / 81018.0 5.4 23.020.023.0
2017-Jan-19 01:18N 26°11' W 079°17'6 7.4
2017-Jan-19 00:33N 26°06' W 079°20'8 7.8
2017-Jan-18 23:33N 25°60' W 079°26'7 6.9
2017-Jan-18 22:33N 25°54' W 079°30'6 6.0
2017-Jan-18 21:33N 25°48' W 079°32'7 6.8
2017-Jan-18 20:33N 25°43' W 079°36'7 7.4
2017-Jan-18 19:33N 25°37' W 079°41'7 7.2
2017-Jan-18 18:33N 25°31' W 079°45'7 7.2
2017-Jan-18 17:33N 25°25' W 079°49'89 7.1
2017-Jan-18 05:00N 24°30' W 081°06'81 3.0 100 / 171023.0 5.4 26.022.025.0
2017-Jan-17 01:32N 25°18' W 079°54'1212.7
2017-Jan-17 00:33N 25°31' W 079°53'1312.7
2017-Jan-16 23:33N 25°43' W 079°57'1212.1
2017-Jan-16 22:33N 25°55' W 079°60'1111.2
2017-Jan-16 21:33N 26°05' W 080°05'2 1.7
2017-Jan-16 20:27N 26°05' W 080°07'0 0.0
2017-Jan-16 19:33N 26°05' W 080°07'0 0.0
2017-Jan-16 18:33N 26°05' W 080°07'0 0.0
2017-Jan-16 17:33N 26°05' W 080°07'0 0.0
2017-Jan-16 16:33N 26°05' W 080°07'0 0.0
2017-Jan-16 15:33N 26°05' W 080°07'0 0.0
2017-Jan-16 14:30N 26°05' W 080°07'0 0.0
2017-Jan-16 13:33N 26°05' W 080°07'0 0.2
2017-Jan-16 12:33N 26°05' W 080°07'1010.4
2017-Jan-16 11:33N 26°06' W 079°55'1817.5
2017-Jan-16 10:33N 26°10' W 079°36'86420.5
2017-Jan-14 16:19N 18°39' W 066°19'1316.9
2017-Jan-14 15:33N 18°31' W 066°09'4 4.0
2017-Jan-14 14:31N 18°28' W 066°06'0 0.0
2017-Jan-14 13:31N 18°28' W 066°06'0 0.0
2017-Jan-14 12:31N 18°28' W 066°06'0 0.0
2017-Jan-14 11:25N 18°28' W 066°06'0 0.0
2017-Jan-14 10:28N 18°28' W 066°06'0 0.0
2017-Jan-14 09:31N 18°28' W 066°06'2 2.2
2017-Jan-14 08:34N 18°28' W 066°08'8 7.9
2017-Jan-14 07:33N 18°36' W 066°08'1 0.8
2017-Jan-14 06:33N 18°37' W 066°09'6 5.9
2017-Jan-14 05:34N 18°40' W 066°03'70 3.7
2017-Jan-13 10:33N 18°15' W 064°54'8 7.7
2017-Jan-13 09:32N 18°12' W 064°46'62 8.8
2017-Jan-13 02:31N 18°04' W 063°42'8 8.5
2017-Jan-13 01:31N 18°03' W 063°33'9 8.3
2017-Jan-13 00:26N 18°02' W 063°24'9 8.5
2017-Jan-12 23:26N 18°01' W 063°15'8 8.9
2017-Jan-12 22:31N 18°00' W 063°06'3 0.3
2017-Jan-12 12:25N 18°01' W 063°03'1 0.9
2017-Jan-12 11:16N 18°00' W 063°04'4 6.0
2017-Jan-12 10:32N 17°58' W 063°08'6 6.2
2017-Jan-12 09:31N 17°52' W 063°08'7 6.7
2017-Jan-12 08:29N 17°48' W 063°01'33 7.6
2017-Jan-12 04:12N 17°31' W 062°32'5 7.6
2017-Jan-12 03:33N 17°28' W 062°28'7 7.4
2017-Jan-12 02:34N 17°24' W 062°22'7 7.1
2017-Jan-12 01:33N 17°21' W 062°15'7 7.2
2017-Jan-12 00:33N 17°17' W 062°09'7 7.4
2017-Jan-11 23:34N 17°13' W 062°02'7 7.0
2017-Jan-11 22:33N 17°09' W 061°56'5 5.2
2017-Jan-11 21:33N 17°07' W 061°51'0 0.0
2017-Jan-11 20:33N 17°07' W 061°51'0 0.0
2017-Jan-11 19:33N 17°07' W 061°51'0 0.0
2017-Jan-11 18:30N 17°07' W 061°51'0 0.0
2017-Jan-11 17:33N 17°07' W 061°51'0 0.0
2017-Jan-11 16:33N 17°07' W 061°51'0 0.0
2017-Jan-11 15:33N 17°07' W 061°51'0 0.0
2017-Jan-11 14:33N 17°07' W 061°51'0 0.0
2017-Jan-11 13:33N 17°07' W 061°51'0 0.0
2017-Jan-11 12:30N 17°07' W 061°51'0 0.0
2017-Jan-11 11:33N 17°07' W 061°51'6 6.3
2017-Jan-11 10:34N 17°09' W 061°57'1514.8
2017-Jan-11 09:34N 16°54' W 061°60'1515.2
2017-Jan-11 08:34N 16°39' W 062°02'1515.1
2017-Jan-11 07:33N 16°24' W 062°03'171 7.3
2017-Jan-10 08:00N 13°42' W 061°06'   040 / 131013.0 5.4 26.022.024.0
Track history (hours):
 
Tides and Currents Weather Stations Pressure Air Temp Water Temp Dewpoint Dewpoint Depression Visibility Wind Speed Wind Dir Waves Ship Positions

Celebrity Summit

Last reported at 2017-Jan-20 05:00 UTC. Time now 2017-Jan-21 04:26 UTC.
Position N 25°36' W 077°18'.

Length 294 m; draft 8.3 m.

Type: Passenger vessel. MMSI: 249047000.

Wind from 170 at 8 knots

Barometer 1018.0 mb
Air temperature 23.0 ° C
Visibility: greater than 5.4 NM
Dewpoint 20.0 ° C
Water temperature 23.0 ° C

Date/timePositionNaut miles runAvg speedWind from/ knotsBaromVisibWave heightAir tempDewpointWater temp
2017-Jan-20 05:00N 25°36' W 077°18'113 4.1 170 / 81018.0 5.4 23.020.023.0
2017-Jan-19 01:18N 26°11' W 079°17'6 7.4
2017-Jan-19 00:33N 26°06' W 079°20'8 7.8
2017-Jan-18 23:33N 25°60' W 079°26'7 6.9
2017-Jan-18 22:33N 25°54' W 079°30'6 6.0
2017-Jan-18 21:33N 25°48' W 079°32'7 6.8
2017-Jan-18 20:33N 25°43' W 079°36'7 7.4
2017-Jan-18 19:33N 25°37' W 079°41'7 7.2
2017-Jan-18 18:33N 25°31' W 079°45'7 7.2
2017-Jan-18 17:33N 25°25' W 079°49'89 7.1
2017-Jan-18 05:00N 24°30' W 081°06'81 3.0 100 / 171023.0 5.4 26.022.025.0
2017-Jan-17 01:32N 25°18' W 079°54'1212.7
2017-Jan-17 00:33N 25°31' W 079°53'1312.7
2017-Jan-16 23:33N 25°43' W 079°57'1212.1
2017-Jan-16 22:33N 25°55' W 079°60'1111.2
2017-Jan-16 21:33N 26°05' W 080°05'2 1.7
2017-Jan-16 20:27N 26°05' W 080°07'0 0.0
2017-Jan-16 19:33N 26°05' W 080°07'0 0.0
2017-Jan-16 18:33N 26°05' W 080°07'0 0.0
2017-Jan-16 17:33N 26°05' W 080°07'0 0.0
2017-Jan-16 16:33N 26°05' W 080°07'0 0.0
2017-Jan-16 15:33N 26°05' W 080°07'0 0.0
2017-Jan-16 14:30N 26°05' W 080°07'0 0.0
2017-Jan-16 13:33N 26°05' W 080°07'0 0.2
2017-Jan-16 12:33N 26°05' W 080°07'1010.4
2017-Jan-16 11:33N 26°06' W 079°55'1817.5
2017-Jan-16 10:33N 26°10' W 079°36'86420.5
2017-Jan-14 16:19N 18°39' W 066°19'1316.9
2017-Jan-14 15:33N 18°31' W 066°09'4 4.0
2017-Jan-14 14:31N 18°28' W 066°06'0 0.0
2017-Jan-14 13:31N 18°28' W 066°06'0 0.0
2017-Jan-14 12:31N 18°28' W 066°06'0 0.0
2017-Jan-14 11:25N 18°28' W 066°06'0 0.0
2017-Jan-14 10:28N 18°28' W 066°06'0 0.0
2017-Jan-14 09:31N 18°28' W 066°06'2 2.2
2017-Jan-14 08:34N 18°28' W 066°08'8 7.9
2017-Jan-14 07:33N 18°36' W 066°08'1 0.8
2017-Jan-14 06:33N 18°37' W 066°09'6 5.9
2017-Jan-14 05:34N 18°40' W 066°03'70 3.7
2017-Jan-13 10:33N 18°15' W 064°54'8 7.7
2017-Jan-13 09:32N 18°12' W 064°46'62 8.8
2017-Jan-13 02:31N 18°04' W 063°42'8 8.5
2017-Jan-13 01:31N 18°03' W 063°33'9 8.3
2017-Jan-13 00:26N 18°02' W 063°24'9 8.5
2017-Jan-12 23:26N 18°01' W 063°15'8 8.9
2017-Jan-12 22:31N 18°00' W 063°06'3 0.3
2017-Jan-12 12:25N 18°01' W 063°03'1 0.9
2017-Jan-12 11:16N 18°00' W 063°04'4 6.0
2017-Jan-12 10:32N 17°58' W 063°08'6 6.2
2017-Jan-12 09:31N 17°52' W 063°08'7 6.7
2017-Jan-12 08:29N 17°48' W 063°01'33 7.6
2017-Jan-12 04:12N 17°31' W 062°32'5 7.6
2017-Jan-12 03:33N 17°28' W 062°28'7 7.4
2017-Jan-12 02:34N 17°24' W 062°22'7 7.1
2017-Jan-12 01:33N 17°21' W 062°15'7 7.2
2017-Jan-12 00:33N 17°17' W 062°09'7 7.4
2017-Jan-11 23:34N 17°13' W 062°02'7 7.0
2017-Jan-11 22:33N 17°09' W 061°56'5 5.2
2017-Jan-11 21:33N 17°07' W 061°51'0 0.0
2017-Jan-11 20:33N 17°07' W 061°51'0 0.0
2017-Jan-11 19:33N 17°07' W 061°51'0 0.0
2017-Jan-11 18:30N 17°07' W 061°51'0 0.0
2017-Jan-11 17:33N 17°07' W 061°51'0 0.0
2017-Jan-11 16:33N 17°07' W 061°51'0 0.0
2017-Jan-11 15:33N 17°07' W 061°51'0 0.0
2017-Jan-11 14:33N 17°07' W 061°51'0 0.0
2017-Jan-11 13:33N 17°07' W 061°51'0 0.0
2017-Jan-11 12:30N 17°07' W 061°51'0 0.0
2017-Jan-11 11:33N 17°07' W 061°51'6 6.3
2017-Jan-11 10:34N 17°09' W 061°57'1514.8
2017-Jan-11 09:34N 16°54' W 061°60'1515.2
2017-Jan-11 08:34N 16°39' W 062°02'1515.1
2017-Jan-11 07:33N 16°24' W 062°03'171 7.3
2017-Jan-10 08:00N 13°42' W 061°06'   040 / 131013.0 5.4 26.022.024.0

Dump ship's entire track history